createdAt,value
2023-02-23T00:00:46.138Z,100692.22
2023-02-23T00:05:50.020Z,100689.66
2023-02-23T00:10:59.416Z,100682.97
2023-02-23T00:16:06.991Z,100658.53
2023-02-23T00:21:10.833Z,100680.38
2023-02-23T00:26:14.819Z,100676.97
2023-02-23T00:31:19.993Z,100651.63
2023-02-23T00:36:27.539Z,100656.06
2023-02-23T00:41:31.336Z,100643.47
2023-02-23T00:46:35.581Z,100640.81
2023-02-23T00:51:39.950Z,100624.59
2023-02-23T00:56:44.169Z,100609.28
2023-02-23T01:01:48.268Z,100620.19
2023-02-23T01:06:52.223Z,100659.31
2023-02-23T01:11:58.050Z,100666.16
2023-02-23T01:17:01.882Z,100661.84
2023-02-23T01:22:06.189Z,100685.63
2023-02-23T01:27:10.010Z,100684.81
2023-02-23T01:32:15.030Z,100691.69
2023-02-23T01:37:18.870Z,100667.16
2023-02-23T01:42:23.614Z,100593.63
2023-02-23T01:47:28.169Z,100668.94
2023-02-23T01:52:35.629Z,100658.84
2023-02-23T01:57:42.231Z,100647.75
2023-02-23T02:02:49.468Z,100656.16
2023-02-23T02:07:59.700Z,100634.69
2023-02-23T02:13:06.931Z,100639.59
2023-02-23T02:18:38.913Z,100625.78
2023-02-23T02:23:46.866Z,100592.53
2023-02-23T02:29:28.359Z,100594.97
2023-02-23T02:34:51.265Z,100587.09
2023-02-23T02:40:17.210Z,100596.16
2023-02-23T02:45:24.132Z,100589.00
2023-02-23T02:51:06.684Z,100575.19
2023-02-23T02:56:12.271Z,100592.91
2023-02-23T03:01:38.181Z,100583.19
2023-02-23T03:07:07.828Z,100576.88
2023-02-23T03:12:45.313Z,100569.69
2023-02-23T03:18:19.213Z,100561.63
2023-02-23T03:24:09.127Z,100542.56
2023-02-23T03:29:37.335Z,100543.00
2023-02-23T03:35:09.936Z,100516.97
2023-02-23T03:40:45.564Z,100475.03
2023-02-23T03:46:09.203Z,100494.13
2023-02-23T03:51:37.134Z,100510.66
2023-02-23T03:57:04.469Z,100499.03
2023-02-23T04:02:29.569Z,100478.91
2023-02-23T04:07:54.148Z,100478.34
2023-02-23T04:13:31.577Z,100457.13
2023-02-23T04:18:37.920Z,100470.81
2023-02-23T04:23:43.575Z,100468.03
2023-02-23T04:28:47.382Z,100470.50
2023-02-23T04:33:52.038Z,100478.28
2023-02-23T04:38:55.966Z,100487.53
2023-02-23T04:43:59.787Z,100480.59
2023-02-23T04:49:04.919Z,100476.13
2023-02-23T04:54:08.925Z,100440.84
2023-02-23T04:59:13.158Z,100458.22
2023-02-23T05:04:16.983Z,100435.63
2023-02-23T05:09:21.325Z,100384.97
2023-02-23T05:14:27.145Z,100392.44
2023-02-23T05:19:31.015Z,100395.19
2023-02-23T05:24:35.061Z,100395.75
2023-02-23T05:29:39.004Z,100400.66
2023-02-23T05:34:43.023Z,100295.06
2023-02-23T05:39:48.242Z,100356.25
2023-02-23T05:44:52.209Z,100323.94
2023-02-23T05:49:56.182Z,100390.00
2023-02-23T05:55:00.280Z,100373.53
2023-02-23T06:00:06.378Z,100359.47
2023-02-23T06:05:12.463Z,100350.72
2023-02-23T06:10:17.460Z,100332.38
2023-02-23T06:15:21.224Z,100362.06
2023-02-23T06:20:25.151Z,100388.25
2023-02-23T06:25:28.833Z,100378.38
2023-02-23T06:30:32.866Z,100359.31
2023-02-23T06:35:36.998Z,100344.22
2023-02-23T06:40:42.356Z,100346.06
2023-02-23T06:45:48.811Z,100342.53
2023-02-23T06:50:54.854Z,100348.53
2023-02-23T06:55:58.819Z,100310.06
2023-02-23T07:01:02.875Z,100323.38
2023-02-23T07:06:07.596Z,100312.63
2023-02-23T07:11:14.656Z,100327.97
2023-02-23T07:16:18.571Z,100310.88
2023-02-23T07:21:23.343Z,100310.09
2023-02-23T07:26:27.382Z,100305.25
2023-02-23T07:31:31.541Z,100309.59
2023-02-23T07:36:35.969Z,100329.34
2023-02-23T07:41:39.769Z,100285.03
2023-02-23T07:46:53.797Z,100321.31
2023-02-23T07:51:57.601Z,100272.06
2023-02-23T07:57:01.983Z,100296.91
2023-02-23T08:02:06.040Z,100292.66
2023-02-23T08:07:11.222Z,100291.47
2023-02-23T08:12:16.543Z,100270.16
2023-02-23T08:17:20.722Z,100278.75
2023-02-23T08:22:24.743Z,100301.56
2023-02-23T08:27:28.522Z,100303.31
2023-02-23T08:32:37.596Z,100303.31
2023-02-23T08:37:43.510Z,100322.16
2023-02-23T08:42:52.990Z,100319.84
2023-02-23T08:47:57.461Z,100331.91
2023-02-23T08:53:01.304Z,100326.72
2023-02-23T08:58:10.037Z,100340.13
2023-02-23T09:03:13.909Z,100356.88
2023-02-23T09:08:17.723Z,100354.91
2023-02-23T09:13:21.697Z,100363.09
2023-02-23T09:18:30.322Z,100369.38
2023-02-23T09:23:37.953Z,100366.09
2023-02-23T09:28:41.992Z,100372.47
2023-02-23T09:33:46.021Z,100376.16
2023-02-23T09:38:57.173Z,100390.03
2023-02-23T09:44:14.366Z,100386.19
2023-02-23T09:49:22.652Z,100366.38
2023-02-23T09:54:31.365Z,100374.56
2023-02-23T09:59:36.883Z,100382.84
2023-02-23T10:04:50.293Z,100358.81
2023-02-23T10:10:27.176Z,100380.38
2023-02-23T10:15:42.937Z,100378.13
2023-02-23T10:21:14.980Z,100377.78
2023-02-23T10:26:25.248Z,100393.47
2023-02-23T10:31:43.035Z,100396.31
2023-02-23T10:37:03.069Z,100407.81
2023-02-23T10:42:15.743Z,100417.63
2023-02-23T10:47:27.621Z,100422.53
2023-02-23T10:52:32.689Z,100431.06
2023-02-23T10:57:40.712Z,100440.72
2023-02-23T11:02:46.689Z,100451.25
2023-02-23T11:07:50.521Z,100459.94
2023-02-23T11:12:54.745Z,100466.88
2023-02-23T11:18:01.556Z,100469.03
2023-02-23T11:23:31.250Z,100479.03
2023-02-23T11:28:37.755Z,100487.88
2023-02-23T11:33:41.857Z,100494.22
2023-02-23T11:38:48.533Z,100481.66
2023-02-23T11:43:57.619Z,100503.28
2023-02-23T11:49:07.212Z,100493.94
2023-02-23T11:54:28.234Z,100485.03
2023-02-23T11:59:40.411Z,100495.91
2023-02-23T12:04:48.583Z,100501.16
2023-02-23T12:10:07.288Z,100484.94
2023-02-23T12:15:29.472Z,100486.91
2023-02-23T12:20:40.701Z,100491.03
2023-02-23T12:25:53.808Z,100491.16
2023-02-23T12:31:05.925Z,100476.69
2023-02-23T12:36:36.188Z,100491.22
2023-02-23T12:42:18.577Z,100510.06
2023-02-23T12:47:42.088Z,100498.91
2023-02-23T12:52:59.474Z,100475.28
2023-02-23T12:58:24.219Z,100523.03
2023-02-23T13:03:49.425Z,100535.13
2023-02-23T13:09:15.658Z,100555.84
2023-02-23T13:14:59.540Z,100536.94
2023-02-23T13:20:20.763Z,100547.31
2023-02-23T13:25:39.110Z,100560.28
2023-02-23T13:30:48.414Z,100568.09
2023-02-23T13:35:52.721Z,100567.22
2023-02-23T13:41:13.784Z,100518.63
2023-02-23T13:46:39.954Z,100584.56
2023-02-23T13:52:00.986Z,100583.78
2023-02-23T13:57:14.188Z,100538.81
2023-02-23T14:02:40.000Z,100607.94
2023-02-23T14:07:46.498Z,100582.63
2023-02-23T14:13:18.728Z,100594.31
2023-02-23T14:18:22.484Z,100582.25
2023-02-23T14:23:27.304Z,100579.59
2023-02-23T14:28:34.399Z,100580.44
2023-02-23T14:33:52.915Z,100519.78
2023-02-23T14:39:03.353Z,100575.06
2023-02-23T14:44:30.047Z,100581.09
2023-02-23T14:49:44.596Z,100571.00
2023-02-23T14:54:49.077Z,100566.94
2023-02-23T15:00:08.480Z,100570.88
2023-02-23T15:05:16.813Z,100558.81
2023-02-23T15:10:30.833Z,100564.88
2023-02-23T15:15:34.910Z,100573.47
2023-02-23T15:20:38.771Z,100565.78
2023-02-23T15:25:45.195Z,100566.44
2023-02-23T15:30:51.601Z,100563.00
2023-02-23T15:35:57.140Z,100572.44
2023-02-23T15:41:05.124Z,100555.38
2023-02-23T15:46:10.400Z,100555.19
2023-02-23T15:51:30.670Z,100562.03
2023-02-23T15:56:35.815Z,100529.06
2023-02-23T16:01:45.452Z,100543.78
2023-02-23T16:07:07.133Z,100545.38
2023-02-23T16:12:18.191Z,100527.38
2023-02-23T16:17:35.308Z,100528.06
2023-02-23T16:22:40.665Z,100535.88
2023-02-23T16:27:46.609Z,100536.66
2023-02-23T16:33:08.321Z,100539.97
2023-02-23T16:38:14.481Z,100536.41
2023-02-23T16:43:18.341Z,100531.50
2023-02-23T16:48:23.943Z,100531.09
2023-02-23T16:53:28.101Z,100529.38
2023-02-23T16:58:36.765Z,100499.66
2023-02-23T17:03:47.394Z,100495.97
2023-02-23T17:08:58.750Z,100500.59
2023-02-23T17:14:03.038Z,100501.78
2023-02-23T17:19:08.103Z,100498.19
2023-02-23T17:24:11.958Z,100492.19
2023-02-23T17:29:15.775Z,100494.94
2023-02-23T17:34:19.625Z,100480.50
2023-02-23T17:39:28.690Z,100453.53
2023-02-23T17:44:32.515Z,100467.16
2023-02-23T17:49:36.741Z,100467.34
2023-02-23T17:54:40.776Z,100470.97
2023-02-23T17:59:44.750Z,100461.09
2023-02-23T18:04:50.585Z,100452.97
2023-02-23T18:09:54.653Z,100457.44
2023-02-23T18:14:59.092Z,100452.50
2023-02-23T18:20:03.029Z,100474.38
2023-02-23T18:25:07.601Z,100448.34
2023-02-23T18:30:12.148Z,100459.31
2023-02-23T18:35:16.278Z,100458.56
2023-02-23T18:40:24.574Z,100462.34
2023-02-23T18:45:28.728Z,100449.63
2023-02-23T18:50:32.747Z,100441.38
2023-02-23T18:55:38.540Z,100386.19
2023-02-23T19:00:43.746Z,100425.00
2023-02-23T19:05:53.876Z,100429.06
2023-02-23T19:10:58.813Z,100416.97
2023-02-23T19:16:10.090Z,100406.84
2023-02-23T19:21:15.765Z,100406.13
2023-02-23T19:26:20.248Z,100395.81
2023-02-23T19:31:26.690Z,100385.38
2023-02-23T19:36:32.394Z,100389.81
2023-02-23T19:41:36.490Z,100381.25
2023-02-23T19:46:40.680Z,100385.56
2023-02-23T19:51:45.828Z,100377.94
2023-02-23T19:56:50.534Z,100392.72
2023-02-23T20:01:54.572Z,100400.75
2023-02-23T20:06:58.586Z,100380.72
2023-02-23T20:12:02.487Z,100378.13
2023-02-23T20:17:07.205Z,100372.28
2023-02-23T20:22:10.975Z,100362.44
2023-02-23T20:27:14.913Z,100363.84
2023-02-23T20:32:18.790Z,100350.59
2023-02-23T20:37:32.008Z,100335.72
2023-02-23T20:42:35.868Z,100343.97
2023-02-23T20:47:40.030Z,100335.03
2023-02-23T20:52:45.061Z,100306.75
2023-02-23T20:57:49.446Z,100315.75
2023-02-23T21:02:56.191Z,100302.72
2023-02-23T21:08:02.345Z,100242.72
2023-02-23T21:13:06.896Z,100269.22
2023-02-23T21:18:11.304Z,100235.28
2023-02-23T21:23:18.268Z,100249.59
2023-02-23T21:28:22.843Z,100224.75
2023-02-23T21:33:26.891Z,100214.63
2023-02-23T21:38:30.796Z,100212.13
2023-02-23T21:43:39.753Z,100196.69
2023-02-23T21:48:44.350Z,100128.03
2023-02-23T21:53:49.842Z,100167.06
2023-02-23T21:58:56.737Z,100173.59
2023-02-23T22:04:00.533Z,100179.00
2023-02-23T22:09:07.418Z,100175.25
2023-02-23T22:14:11.940Z,100162.50
2023-02-23T22:19:16.702Z,100149.03
2023-02-23T22:24:20.526Z,100134.03
2023-02-23T22:29:26.091Z,100143.00
2023-02-23T22:34:29.879Z,100129.50
2023-02-23T22:39:34.288Z,100114.50
2023-02-23T22:44:39.897Z,100120.31
2023-02-23T22:49:43.574Z,100100.94
2023-02-23T22:54:48.682Z,100087.75
2023-02-23T23:00:01.192Z,100093.50
2023-02-23T23:05:08.748Z,100091.66
2023-02-23T23:10:13.545Z,100104.16
2023-02-23T23:15:19.972Z,100095.88
2023-02-23T23:20:26.525Z,100097.38
2023-02-23T23:25:30.324Z,100093.38
2023-02-23T23:30:36.056Z,100027.59
2023-02-23T23:35:39.875Z,100093.78
2023-02-23T23:40:47.637Z,100089.91
2023-02-23T23:45:52.400Z,100076.69
2023-02-23T23:50:56.960Z,100082.63
2023-02-23T23:56:06.986Z,100046.59
